createdAt,value
2022-12-16T00:03:46.935Z,0.20
2022-12-16T00:08:44.940Z,0.10
2022-12-16T00:13:42.715Z,0.10
2022-12-16T00:18:40.593Z,0.10
2022-12-16T00:23:39.553Z,0.20
2022-12-16T00:28:38.435Z,0.10
2022-12-16T00:33:36.621Z,0.30
2022-12-16T00:38:35.139Z,0.30
2022-12-16T00:43:32.901Z,0.40
2022-12-16T00:48:30.582Z,0.50
2022-12-16T00:53:28.362Z,0.40
2022-12-16T00:58:26.340Z,0.50
2022-12-16T01:03:23.899Z,0.50
2022-12-16T01:08:21.444Z,0.50
2022-12-16T01:13:20.182Z,0.50
2022-12-16T01:18:18.434Z,0.50
2022-12-16T01:23:19.322Z,0.30
2022-12-16T01:28:16.503Z,0.40
2022-12-16T01:33:14.850Z,0.40
2022-12-16T01:38:13.314Z,0.40
2022-12-16T01:43:14.329Z,0.40
2022-12-16T01:48:30.769Z,0.40
2022-12-16T01:53:28.454Z,0.40
2022-12-16T01:58:30.871Z,0.40
2022-12-16T02:03:32.301Z,0.60
2022-12-16T02:08:30.190Z,0.50
2022-12-16T02:13:42.397Z,0.40
2022-12-16T02:18:40.665Z,0.50
2022-12-16T02:23:56.377Z,0.50
2022-12-16T02:29:25.243Z,0.30
2022-12-16T02:34:52.939Z,0.50
2022-12-16T02:40:06.935Z,0.50
2022-12-16T02:45:27.770Z,0.40
2022-12-16T02:50:27.776Z,0.20
2022-12-16T02:55:40.791Z,-0.10
2022-12-16T03:01:06.312Z,-0.10
2022-12-16T03:06:06.131Z,-0.10
2022-12-16T03:11:07.071Z,-0.20
2022-12-16T03:16:06.980Z,-0.30
2022-12-16T03:21:07.325Z,-0.30
2022-12-16T03:26:19.171Z,-0.30
2022-12-16T03:31:43.000Z,-0.10
2022-12-16T03:36:45.465Z,-0.30
2022-12-16T03:41:44.716Z,-0.30
2022-12-16T03:46:41.944Z,-0.30
2022-12-16T03:51:39.305Z,-0.20
2022-12-16T03:56:36.664Z,-0.20
2022-12-16T04:01:34.170Z,-0.20
2022-12-16T04:06:31.833Z,-0.20
2022-12-16T04:11:47.609Z,-0.20
2022-12-16T04:17:04.322Z,-0.20
2022-12-16T04:22:21.069Z,-0.20
2022-12-16T04:27:27.972Z,-0.30
2022-12-16T04:32:27.127Z,-0.20
2022-12-16T04:37:52.291Z,-0.20
2022-12-16T04:43:27.867Z,-0.10
2022-12-16T04:48:44.098Z,0.00
2022-12-16T04:54:00.100Z,0.00
2022-12-16T04:59:17.472Z,0.00
2022-12-16T05:04:33.434Z,0.00
2022-12-16T05:09:49.661Z,-0.10
2022-12-16T05:15:06.500Z,-0.10
2022-12-16T05:20:28.045Z,-0.10
2022-12-16T05:25:45.791Z,-0.10
2022-12-16T05:31:11.217Z,0.10
2022-12-16T05:36:29.353Z,0.10
2022-12-16T05:41:45.764Z,-0.10
2022-12-16T05:47:03.292Z,-0.10
2022-12-16T05:52:19.268Z,-0.10
2022-12-16T05:57:35.058Z,0.00
2022-12-16T06:03:01.755Z,-0.20
2022-12-16T06:08:19.213Z,-0.30
2022-12-16T06:13:36.088Z,-0.20
2022-12-16T06:18:51.992Z,0.00
2022-12-16T06:24:07.855Z,0.10
2022-12-16T06:29:23.817Z,0.10
2022-12-16T06:34:41.254Z,0.30
2022-12-16T06:39:57.303Z,0.10
2022-12-16T06:45:13.173Z,0.10
2022-12-16T06:50:29.074Z,0.20
2022-12-16T06:55:44.898Z,0.30
2022-12-16T07:01:00.984Z,0.20
2022-12-16T07:06:16.567Z,0.30
2022-12-16T07:11:32.169Z,0.30
2022-12-16T07:16:48.174Z,0.50
2022-12-16T07:22:04.031Z,0.70
2022-12-16T07:27:19.626Z,0.80
2022-12-16T07:32:35.543Z,0.90
2022-12-16T07:37:51.530Z,1.00
2022-12-16T07:43:07.491Z,1.10
2022-12-16T07:48:25.092Z,1.20
2022-12-16T07:53:42.202Z,1.40
2022-12-16T07:58:58.073Z,1.70
2022-12-16T08:04:13.836Z,1.80
2022-12-16T08:09:29.606Z,2.20
2022-12-16T08:14:45.233Z,2.50
2022-12-16T08:20:01.403Z,2.80
2022-12-16T08:25:17.359Z,2.80
2022-12-16T08:30:33.565Z,3.00
2022-12-16T08:35:49.338Z,3.30
2022-12-16T08:41:05.078Z,3.60
2022-12-16T08:46:20.953Z,4.00
2022-12-16T08:51:36.777Z,3.80
2022-12-16T08:56:52.358Z,3.80
2022-12-16T09:02:08.353Z,4.10
2022-12-16T09:07:24.557Z,4.80
2022-12-16T09:12:40.599Z,5.30
2022-12-16T09:17:56.499Z,5.20
2022-12-16T09:23:20.004Z,4.40
2022-12-16T09:28:35.712Z,3.90
2022-12-16T09:33:51.601Z,3.90
2022-12-16T09:39:07.377Z,3.80
2022-12-16T09:44:49.579Z,3.90
2022-12-16T09:50:08.937Z,4.20
2022-12-16T09:56:09.801Z,4.70
2022-12-16T10:01:28.068Z,5.50
2022-12-16T10:06:57.376Z,5.60
2022-12-16T10:12:37.652Z,5.40
2022-12-16T10:18:00.794Z,5.20
2022-12-16T10:24:01.593Z,6.00
2022-12-16T10:29:51.613Z,7.00
2022-12-16T10:35:07.407Z,7.10
2022-12-16T10:40:26.557Z,6.50
2022-12-16T10:46:03.970Z,6.40
2022-12-16T10:51:20.112Z,5.90
2022-12-16T10:56:54.457Z,6.20
2022-12-16T11:02:17.548Z,5.90
2022-12-16T11:07:57.646Z,5.70
2022-12-16T11:13:27.264Z,6.10
2022-12-16T11:18:43.167Z,6.30
2022-12-16T11:23:59.076Z,5.90
2022-12-16T11:29:43.924Z,5.70
2022-12-16T11:35:01.580Z,5.80
2022-12-16T11:40:17.264Z,5.60
2022-12-16T11:45:39.051Z,5.60
2022-12-16T11:51:10.630Z,5.30
2022-12-16T11:56:33.668Z,4.90
2022-12-16T12:01:52.343Z,4.40
2022-12-16T12:07:18.454Z,4.60
2022-12-16T12:12:47.821Z,4.30
2022-12-16T12:18:16.857Z,4.30
2022-12-16T12:23:51.309Z,4.10
2022-12-16T12:29:37.889Z,4.20
2022-12-16T12:35:26.390Z,4.00
2022-12-16T12:41:10.635Z,3.80
2022-12-16T12:47:12.576Z,3.70
2022-12-16T12:53:06.320Z,3.80
2022-12-16T12:58:23.543Z,3.80
2022-12-16T13:03:58.559Z,3.80
2022-12-16T13:09:16.905Z,3.90
2022-12-16T13:14:53.868Z,3.80
2022-12-16T13:20:15.765Z,3.70
2022-12-16T13:26:08.734Z,3.70
2022-12-16T13:31:27.296Z,3.60
2022-12-16T13:36:53.259Z,3.40
2022-12-16T13:42:18.736Z,3.40
2022-12-16T13:47:52.454Z,3.30
2022-12-16T13:53:21.934Z,3.30
2022-12-16T13:58:58.734Z,3.40
2022-12-16T14:04:15.672Z,3.50
2022-12-16T14:09:54.779Z,3.50
2022-12-16T14:15:28.660Z,3.30
2022-12-16T14:20:54.728Z,3.30
2022-12-16T14:26:16.756Z,3.30
2022-12-16T14:31:57.858Z,3.40
2022-12-16T14:37:15.529Z,3.40
2022-12-16T14:42:46.618Z,3.10
2022-12-16T14:48:02.631Z,3.00
2022-12-16T14:53:39.665Z,2.90
2022-12-16T14:58:55.660Z,2.70
2022-12-16T15:04:12.196Z,2.70
2022-12-16T15:09:43.328Z,2.60
2022-12-16T15:15:00.314Z,2.50
2022-12-16T15:20:16.526Z,2.50
2022-12-16T15:25:51.790Z,2.50
2022-12-16T15:31:08.006Z,2.40
2022-12-16T15:36:52.101Z,2.30
2022-12-16T15:42:07.967Z,2.30
2022-12-16T15:47:25.684Z,2.20
2022-12-16T15:53:03.319Z,2.10
2022-12-16T15:58:19.787Z,2.00
2022-12-16T16:03:49.629Z,2.00
2022-12-16T16:09:10.278Z,2.10
2022-12-16T16:14:26.455Z,2.10
2022-12-16T16:19:46.096Z,2.00
2022-12-16T16:25:01.819Z,1.90
2022-12-16T16:30:18.429Z,1.80
2022-12-16T16:35:34.581Z,1.80
2022-12-16T16:40:54.923Z,1.90
2022-12-16T16:46:14.309Z,2.10
2022-12-16T16:51:30.317Z,2.00
2022-12-16T16:56:48.818Z,2.20
2022-12-16T17:02:05.183Z,2.10
2022-12-16T17:07:21.388Z,2.20
2022-12-16T17:12:42.330Z,2.10
2022-12-16T17:17:57.848Z,2.20
2022-12-16T17:23:13.555Z,2.20
2022-12-16T17:28:30.657Z,2.20
2022-12-16T17:33:47.321Z,2.20
2022-12-16T17:39:04.149Z,2.00
2022-12-16T17:44:20.043Z,1.90
2022-12-16T17:49:36.291Z,2.10
2022-12-16T17:54:52.076Z,2.10
2022-12-16T18:00:07.836Z,2.00
2022-12-16T18:05:24.117Z,2.10
2022-12-16T18:10:40.179Z,2.20
2022-12-16T18:15:56.130Z,2.20
2022-12-16T18:21:13.400Z,2.10
2022-12-16T18:26:29.489Z,2.10
2022-12-16T18:31:45.404Z,2.10
2022-12-16T18:37:01.130Z,1.90
2022-12-16T18:42:18.378Z,1.90
2022-12-16T18:47:35.301Z,1.90
2022-12-16T18:52:51.501Z,2.00
2022-12-16T18:58:20.987Z,2.00
2022-12-16T19:03:44.705Z,2.00
2022-12-16T19:09:17.277Z,1.90
2022-12-16T19:14:33.130Z,2.00
2022-12-16T19:19:49.631Z,2.00
2022-12-16T19:25:19.524Z,2.10
2022-12-16T19:30:35.806Z,2.10
2022-12-16T19:35:53.687Z,2.10
2022-12-16T19:41:13.235Z,2.10
2022-12-16T19:46:29.286Z,2.00
2022-12-16T19:51:46.258Z,2.00
2022-12-16T19:57:02.512Z,1.90
2022-12-16T20:02:29.220Z,1.90
2022-12-16T20:07:45.302Z,1.90
2022-12-16T20:13:01.880Z,2.00
2022-12-16T20:18:18.331Z,2.00
2022-12-16T20:23:35.213Z,2.10
2022-12-16T20:28:54.691Z,2.10
2022-12-16T20:34:15.258Z,2.10
2022-12-16T20:39:32.647Z,2.20
2022-12-16T20:44:48.540Z,2.00
2022-12-16T20:50:04.929Z,2.00
2022-12-16T20:55:23.625Z,2.10
2022-12-16T21:00:40.339Z,2.10
2022-12-16T21:05:56.793Z,2.00
2022-12-16T21:11:16.028Z,1.90
2022-12-16T21:16:32.234Z,1.80
2022-12-16T21:21:47.709Z,1.90
2022-12-16T21:27:03.234Z,1.90
2022-12-16T21:32:19.005Z,1.90
2022-12-16T21:37:35.689Z,1.90
2022-12-16T21:42:51.485Z,1.90
2022-12-16T21:48:12.324Z,1.90
2022-12-16T21:53:28.686Z,1.80
2022-12-16T21:58:45.461Z,2.00
2022-12-16T22:04:02.829Z,2.20
2022-12-16T22:09:19.504Z,2.20
2022-12-16T22:14:35.319Z,2.00
2022-12-16T22:19:51.012Z,1.80
2022-12-16T22:25:14.259Z,1.70
2022-12-16T22:30:31.070Z,1.80
2022-12-16T22:35:47.346Z,1.80
2022-12-16T22:41:13.909Z,1.80
2022-12-16T22:46:29.665Z,1.80
2022-12-16T22:51:46.263Z,1.80
2022-12-16T22:57:03.525Z,1.80
2022-12-16T23:02:19.392Z,1.80
2022-12-16T23:07:35.334Z,1.70
2022-12-16T23:12:51.752Z,1.70
2022-12-16T23:18:08.054Z,1.90
2022-12-16T23:23:23.987Z,1.90
2022-12-16T23:28:40.027Z,1.90
2022-12-16T23:33:58.851Z,1.90
2022-12-16T23:39:15.101Z,1.90
2022-12-16T23:44:31.119Z,2.00
2022-12-16T23:49:46.812Z,1.90
2022-12-16T23:55:03.116Z,2.00
